Time;durP1;ratioP1;P1;durP2;ratioP2;P2;SDS_P1;SDS_P2;PMS_P1;PMS_P2;Temp;Humidity;BMP_temperature;BMP_pressure;BME280_temperature;BME280_humidity;BME280_pressure;Samples;Min_cycle;Max_cycle;Signal;HPM_P1;HPM_P2
2023/08/15 00:01:01;;;;;;;;;4.00;3.00;;;;;22.11;62.38;100750.00;5097558;27;68909;-68
2023/08/15 00:03:27;;;;;;;;;3.00;2.25;;;;;22.11;62.47;100750.84;5090725;27;45495;-69
2023/08/15 00:05:52;;;;;;;;;4.50;3.00;;;;;22.13;62.20;100743.59;5092235;27;45464;-69
2023/08/15 00:08:17;;;;;;;;;6.25;3.25;;;;;22.18;61.89;100751.22;5099194;27;61362;-69
2023/08/15 00:10:43;;;;;;;;;5.50;3.00;;;;;22.21;62.23;100744.84;5089870;27;45272;-69
2023/08/15 00:13:08;;;;;;;;;2.75;2.25;;;;;22.23;61.72;100751.72;5095429;27;45389;-69
2023/08/15 00:15:35;;;;;;;;;4.50;4.00;;;;;22.26;61.29;100745.34;5085473;27;59970;-68
2023/08/15 00:18:00;;;;;;;;;6.00;3.25;;;;;22.26;61.58;100742.66;5092269;27;45452;-68
2023/08/15 00:20:25;;;;;;;;;3.25;2.75;;;;;22.27;61.32;100733.72;5087182;27;45274;-68
2023/08/15 00:22:51;;;;;;;;;3.25;2.50;;;;;22.26;61.45;100738.19;5096276;27;45173;-69
2023/08/15 00:25:16;;;;;;;;;2.50;2.50;;;;;22.27;61.17;100745.22;5092743;27;63081;-68
2023/08/15 00:27:42;;;;;;;;;5.00;2.75;;;;;22.26;60.54;100737.34;5099917;27;46235;-68
2023/08/15 00:30:07;;;;;;;;;6.00;3.00;;;;;22.27;60.79;100739.06;5096133;27;69800;-68
2023/08/15 00:32:35;;;;;;;;;4.25;3.00;;;;;22.28;60.36;100735.44;5098066;27;45310;-68
2023/08/15 00:35:05;;;;;;;;;8.25;3.00;;;;;22.29;60.66;100734.44;5095788;27;45468;-68
2023/08/15 00:37:34;;;;;;;;;2.00;2.00;;;;;22.27;60.29;100739.06;5096811;27;47694;-69
2023/08/15 00:40:00;;;;;;;;;3.00;3.00;;;;;22.29;60.05;100740.66;5101077;27;45379;-68
2023/08/15 00:42:25;;;;;;;;;2.00;2.00;;;;;22.30;60.39;100742.34;5092328;27;45150;-67
2023/08/15 00:44:51;;;;;;;;;4.50;3.25;;;;;22.31;60.21;100741.38;5084639;27;45672;-69
2023/08/15 00:47:18;;;;;;;;;5.00;3.00;;;;;22.30;59.85;100744.16;5094841;27;55992;-67
2023/08/15 00:49:43;;;;;;;;;4.25;2.50;;;;;22.33;59.99;100751.94;5085682;27;45349;-69
2023/08/15 00:52:11;;;;;;;;;5.00;3.00;;;;;22.32;59.84;100748.38;5092267;27;45285;-68
2023/08/15 00:54:37;;;;;;;;;5.75;3.00;;;;;22.35;60.13;100750.00;5092045;27;45201;-68
2023/08/15 00:57:04;;;;;;;;;3.00;2.75;;;;;22.33;59.57;100750.09;5096091;27;62520;-69
2023/08/15 00:59:30;;;;;;;;;3.00;2.75;;;;;22.31;59.67;100748.50;5100735;27;45681;-69
2023/08/15 01:01:56;;;;;;;;;5.50;3.25;;;;;22.27;59.78;100750.56;5102090;27;53663;-69
2023/08/15 01:04:21;;;;;;;;;5.50;2.50;;;;;22.24;59.64;100742.78;5087441;27;45975;-69
2023/08/15 01:06:46;;;;;;;;;3.00;3.00;;;;;22.21;59.72;100743.00;5091082;27;61789;-69
2023/08/15 01:09:12;;;;;;;;;3.00;2.25;;;;;22.14;59.53;100739.09;5100482;27;45489;-69
2023/08/15 01:11:52;;;;;;;;;4.00;3.75;;;;;22.15;60.05;100744.31;5086608;27;63366;-69
2023/08/15 01:14:19;;;;;;;;;5.00;3.75;;;;;22.12;59.23;100749.03;5087493;27;45377;-69
2023/08/15 01:16:46;;;;;;;;;4.25;3.00;;;;;22.07;59.62;100752.03;5099892;27;72815;-69
2023/08/15 01:19:37;;;;;;;;;9.00;4.00;;;;;22.08;59.77;100748.41;5085864;27;45402;-69
2023/08/15 01:22:06;;;;;;;;;4.00;3.25;;;;;22.12;59.22;100751.72;5081741;27;45505;-68
2023/08/15 01:24:32;;;;;;;;;6.50;4.25;;;;;22.07;59.38;100752.03;5089254;27;45403;-68
2023/08/15 01:26:58;;;;;;;;;3.75;3.00;;;;;22.09;59.71;100754.59;5094272;27;47007;-68
2023/08/15 01:29:23;;;;;;;;;3.25;3.25;;;;;22.08;59.20;100761.75;5090434;27;45427;-68
2023/08/15 01:31:57;;;;;;;;;5.50;3.25;;;;;22.06;59.88;100761.03;5083452;27;56231;-69
2023/08/15 01:34:28;;;;;;;;;3.00;2.50;;;;;22.08;59.56;100760.88;5092280;27;45395;-68
2023/08/15 01:37:02;;;;;;;;;5.00;3.25;;;;;22.05;59.51;100764.63;5086692;27;45424;-68
2023/08/15 01:39:29;;;;;;;;;3.00;3.00;;;;;22.07;59.48;100769.84;5087626;27;45707;-69
2023/08/15 01:41:57;;;;;;;;;4.00;3.00;;;;;22.08;59.10;100771.53;5094054;27;45289;-68
2023/08/15 01:44:22;;;;;;;;;3.25;3.00;;;;;22.06;58.90;100769.00;5099688;27;45432;-68
2023/08/15 01:46:48;;;;;;;;;4.00;4.00;;;;;22.10;59.40;100767.81;5079130;27;46687;-68
2023/08/15 01:49:14;;;;;;;;;3.00;2.00;;;;;22.11;58.98;100765.97;5091282;27;45282;-68
2023/08/15 01:51:39;;;;;;;;;5.50;2.25;;;;;22.14;59.33;100776.44;5099068;27;45526;-67
2023/08/15 01:54:05;;;;;;;;;5.50;3.50;;;;;22.13;59.07;100778.25;5094523;27;65099;-67
2023/08/15 01:56:30;;;;;;;;;4.75;2.00;;;;;22.12;58.67;100794.34;5096811;27;46915;-68
2023/08/15 01:58:55;;;;;;;;;5.50;3.50;;;;;22.10;59.22;100793.63;5095700;27;65166;-68
2023/08/15 02:01:21;;;;;;;;;4.00;2.25;;;;;22.12;58.92;100800.53;5101438;27;54010;-70
2023/08/15 02:03:46;;;;;;;;;4.00;2.75;;;;;22.14;59.50;100797.75;5094409;27;45524;-68
2023/08/15 02:06:11;;;;;;;;;3.25;3.00;;;;;22.15;59.30;100802.97;5083505;27;67307;-68
2023/08/15 02:08:37;;;;;;;;;4.75;3.00;;;;;22.17;59.21;100809.03;5087988;27;63986;-67
2023/08/15 02:11:02;;;;;;;;;4.50;1.25;;;;;22.21;59.13;100803.47;5099915;27;63749;-68
2023/08/15 02:13:30;;;;;;;;;3.50;3.00;;;;;22.19;58.75;100806.25;5081633;27;68370;-67
2023/08/15 02:15:56;;;;;;;;;3.00;3.00;;;;;22.17;59.06;100798.38;5082587;27;46931;-68
2023/08/15 02:18:22;;;;;;;;;4.00;3.00;;;;;22.18;59.09;100792.06;5080818;27;45750;-68
2023/08/15 02:20:48;;;;;;;;;4.25;3.00;;;;;22.16;59.17;100799.31;5092342;27;45670;-69
2023/08/15 02:23:13;;;;;;;;;3.25;3.00;;;;;22.16;58.81;100803.81;5100393;27;67605;-68
2023/08/15 02:25:38;;;;;;;;;3.50;3.00;;;;;22.15;59.19;100805.63;5095702;27;70977;-69
2023/08/15 02:28:04;;;;;;;;;3.00;3.00;;;;;22.14;59.12;100803.91;5092673;27;67819;-68
2023/08/15 02:30:32;;;;;;;;;4.50;3.00;;;;;22.09;58.65;100800.75;5093900;27;45487;-68
2023/08/15 02:32:58;;;;;;;;;4.25;2.00;;;;;22.08;58.88;100807.06;5088709;27;45648;-68
2023/08/15 02:35:23;;;;;;;;;5.50;2.75;;;;;22.05;58.89;100809.09;5085359;27;46897;-68
2023/08/15 02:37:48;;;;;;;;;1.75;1.25;;;;;22.04;59.42;100804.72;5096096;27;45418;-68
2023/08/15 02:40:14;;;;;;;;;3.00;3.00;;;;;22.03;58.70;100801.22;5091160;27;46839;-68
2023/08/15 02:42:39;;;;;;;;;5.75;3.25;;;;;21.99;59.32;100808.59;5099298;27;50012;-68
2023/08/15 02:45:05;;;;;;;;;2.25;2.25;;;;;22.00;58.97;100804.94;5090649;27;62404;-68
2023/08/15 02:47:30;;;;;;;;;8.25;3.00;;;;;22.02;59.50;100809.31;5087769;27;45365;-68
2023/08/15 02:49:56;;;;;;;;;4.75;3.50;;;;;21.99;59.26;100797.06;5092216;27;45440;-68
2023/08/15 02:52:21;;;;;;;;;7.00;3.50;;;;;21.97;59.51;100805.19;5084762;27;64326;-68
2023/08/15 02:54:46;;;;;;;;;3.00;2.00;;;;;21.94;59.20;100801.91;5083118;27;74892;-70
2023/08/15 02:57:12;;;;;;;;;4.75;4.00;;;;;21.95;59.16;100800.91;5095166;27;45286;-67
2023/08/15 02:59:37;;;;;;;;;7.00;3.00;;;;;21.93;59.21;100798.38;5087631;27;51096;-69
2023/08/15 03:02:02;;;;;;;;;3.50;3.00;;;;;21.91;59.46;100796.78;5083775;27;62951;-69
2023/08/15 03:04:29;;;;;;;;;5.50;3.25;;;;;21.86;59.41;100791.78;5083212;27;57134;-70
2023/08/15 03:06:55;;;;;;;;;4.00;3.00;;;;;21.86;59.22;100798.94;5090719;27;45759;-69
2023/08/15 03:09:20;;;;;;;;;5.50;3.25;;;;;21.86;59.13;100805.13;5098407;27;45305;-69
2023/08/15 03:11:45;;;;;;;;;6.50;4.00;;;;;21.84;59.60;100795.53;5086945;27;61233;-69
2023/08/15 03:14:11;;;;;;;;;7.75;4.00;;;;;21.81;59.15;100793.94;5089331;27;53885;-69
2023/08/15 03:16:36;;;;;;;;;7.75;3.00;;;;;21.76;58.91;100791.63;5095861;27;45309;-69
2023/08/15 03:19:01;;;;;;;;;5.75;3.75;;;;;21.69;59.13;100787.72;5086207;27;56848;-69
2023/08/15 03:21:27;;;;;;;;;3.50;2.00;;;;;21.66;59.31;100793.25;5093425;27;58193;-68
2023/08/15 03:23:52;;;;;;;;;6.00;3.00;;;;;21.63;59.73;100784.66;5089824;27;46127;-68
2023/08/15 03:26:17;;;;;;;;;4.75;3.50;;;;;21.57;59.43;100789.44;5096810;27;53072;-70
2023/08/15 03:28:43;;;;;;;;;6.50;3.00;;;;;21.51;59.45;100789.88;5092725;27;51722;-69
2023/08/15 03:31:08;;;;;;;;;2.50;2.50;;;;;21.50;59.60;100800.66;5098186;27;73239;-69
2023/08/15 03:33:34;;;;;;;;;8.25;3.50;;;;;21.47;59.88;100804.38;5096120;27;45883;-69
2023/08/15 03:36:00;;;;;;;;;3.00;3.00;;;;;21.46;59.67;100808.03;5094710;27;45822;-70
2023/08/15 03:38:25;;;;;;;;;7.25;3.00;;;;;21.46;59.66;100820.47;5088840;27;45495;-69
2023/08/15 03:41:04;;;;;;;;;2.50;2.50;;;;;21.42;60.17;100828.66;5096526;27;45276;-69
2023/08/15 03:43:34;;;;;;;;;4.00;3.00;;;;;21.37;59.55;100827.25;5099898;27;45529;-69
2023/08/15 03:46:00;;;;;;;;;5.00;3.00;;;;;21.34;60.01;100831.00;5090902;27;45665;-68
2023/08/15 03:48:25;;;;;;;;;3.25;3.00;;;;;21.31;59.97;100833.88;5090437;27;45317;-69
2023/08/15 03:50:54;;;;;;;;;4.00;3.00;;;;;21.31;59.93;100836.53;5101367;27;45491;-69
2023/08/15 03:53:19;;;;;;;;;5.50;2.00;;;;;21.26;60.48;100833.34;5097229;27;46201;-69
2023/08/15 03:55:46;;;;;;;;;6.00;3.00;;;;;21.25;59.95;100844.97;5089521;27;55272;-68
2023/08/15 03:58:12;;;;;;;;;2.75;2.75;;;;;21.21;60.39;100841.69;5086789;27;45464;-69
2023/08/15 04:00:37;;;;;;;;;4.75;3.50;;;;;21.21;60.10;100849.66;5096460;27;45395;-69
2023/08/15 04:03:03;;;;;;;;;3.00;3.00;;;;;21.18;60.11;100857.84;5087160;27;46184;-71
2023/08/15 04:05:28;;;;;;;;;6.50;3.50;;;;;21.16;60.25;100865.09;5094758;27;45413;-70
2023/08/15 04:07:54;;;;;;;;;3.50;2.50;;;;;21.16;60.46;100872.22;5079567;27;45243;-69
2023/08/15 04:10:19;;;;;;;;;3.50;3.50;;;;;21.13;60.71;100878.59;5098430;27;69772;-69
2023/08/15 04:12:45;;;;;;;;;3.00;3.00;;;;;21.12;60.77;100884.03;5084890;27;53925;-69
2023/08/15 04:15:10;;;;;;;;;3.00;3.00;;;;;21.11;60.42;100879.69;5095411;27;70757;-69
2023/08/15 04:17:36;;;;;;;;;8.00;4.00;;;;;21.07;60.81;100872.84;5099422;27;45424;-68
2023/08/15 04:20:02;;;;;;;;;1.00;1.00;;;;;21.07;60.77;100888.81;5087969;27;45320;-68
2023/08/15 04:22:28;;;;;;;;;5.25;2.50;;;;;21.04;61.03;100892.56;5082990;27;47055;-68
2023/08/15 04:24:53;;;;;;;;;4.75;3.00;;;;;20.98;60.82;100893.84;5097928;27;53306;-68
2023/08/15 04:27:18;;;;;;;;;5.00;3.00;;;;;20.97;61.15;100894.78;5097979;27;60103;-68
2023/08/15 04:29:44;;;;;;;;;5.00;2.25;;;;;20.93;61.45;100898.59;5092568;27;68230;-69
2023/08/15 04:32:09;;;;;;;;;4.50;2.75;;;;;20.91;61.46;100911.16;5098045;27;46904;-69
2023/08/15 04:34:34;;;;;;;;;2.00;2.00;;;;;20.88;61.74;100900.72;5087249;27;61299;-69
2023/08/15 04:37:00;;;;;;;;;7.75;3.75;;;;;20.88;61.92;100897.22;5094074;27;65681;-69
2023/08/15 04:39:27;;;;;;;;;3.25;2.00;;;;;20.87;61.83;100896.34;5098374;27;65148;-69
2023/08/15 04:41:52;;;;;;;;;3.75;3.75;;;;;20.85;62.19;100891.13;5090424;27;46674;-70
2023/08/15 04:44:17;;;;;;;;;4.75;3.00;;;;;20.84;61.70;100894.75;5091580;27;45442;-70
2023/08/15 04:46:43;;;;;;;;;3.50;2.75;;;;;20.84;61.69;100889.44;5092496;27;70454;-70
2023/08/15 04:49:08;;;;;;;;;4.50;3.00;;;;;20.85;61.68;100895.59;5097326;27;45256;-69
2023/08/15 04:51:33;;;;;;;;;5.50;3.50;;;;;20.83;62.09;100889.53;5089332;27;72022;-68
2023/08/15 04:53:59;;;;;;;;;4.50;3.00;;;;;20.83;62.07;100886.88;5095758;27;70263;-69
2023/08/15 04:56:24;;;;;;;;;3.75;3.25;;;;;20.80;62.24;100887.94;5095770;27;54137;-69
2023/08/15 04:58:49;;;;;;;;;4.75;3.00;;;;;20.79;62.34;100891.56;5097924;27;45497;-68
2023/08/15 05:01:15;;;;;;;;;3.25;2.00;;;;;20.80;61.79;100903.03;5092662;27;68040;-69
2023/08/15 05:03:40;;;;;;;;;5.75;3.00;;;;;20.79;62.33;100912.00;5101589;27;71282;-68
2023/08/15 05:06:05;;;;;;;;;3.25;3.00;;;;;20.79;61.75;100914.66;5094373;27;45362;-68
2023/08/15 05:08:31;;;;;;;;;4.25;3.25;;;;;20.77;61.72;100912.09;5089315;27;54993;-69
2023/08/15 05:10:56;;;;;;;;;4.00;2.75;;;;;20.75;62.08;100911.34;5089962;27;68856;-68
2023/08/15 05:13:21;;;;;;;;;5.75;2.00;;;;;20.75;61.91;100916.66;5088935;27;66056;-68
2023/08/15 05:15:47;;;;;;;;;4.75;2.00;;;;;20.73;62.14;100915.06;5094538;27;45299;-70
2023/08/15 05:18:13;;;;;;;;;4.00;2.00;;;;;20.73;62.48;100921.22;5096944;27;66086;-70
2023/08/15 05:20:38;;;;;;;;;4.25;4.00;;;;;20.73;62.57;100913.22;5099462;27;47148;-68
2023/08/15 05:23:04;;;;;;;;;2.50;2.25;;;;;20.73;62.47;100915.06;5093433;27;45412;-69
2023/08/15 05:25:29;;;;;;;;;4.75;2.75;;;;;20.75;62.37;100911.34;5097045;27;45355;-69
2023/08/15 05:27:55;;;;;;;;;6.25;2.50;;;;;20.74;62.59;100911.44;5090946;27;54051;-69
2023/08/15 05:30:21;;;;;;;;;3.25;3.00;;;;;20.77;62.29;100914.75;5096235;27;45415;-68
2023/08/15 05:32:46;;;;;;;;;3.00;2.25;;;;;20.78;62.62;100919.09;5087112;27;45314;-68
2023/08/15 05:35:12;;;;;;;;;4.25;3.00;;;;;20.80;62.23;100925.16;5090626;27;60533;-69
2023/08/15 05:37:37;;;;;;;;;4.25;3.00;;;;;20.81;62.48;100918.91;5099127;27;45967;-69
2023/08/15 05:40:04;;;;;;;;;8.00;3.00;;;;;20.82;62.44;100923.28;5084072;27;74664;-69
2023/08/15 05:42:29;;;;;;;;;3.25;3.25;;;;;20.84;62.89;100923.16;5090539;27;45675;-69
2023/08/15 05:44:54;;;;;;;;;3.75;2.50;;;;;20.85;62.84;100924.88;5094606;27;67082;-69
2023/08/15 05:47:20;;;;;;;;;4.00;3.50;;;;;20.85;62.71;100928.38;5089243;27;71094;-69
2023/08/15 05:49:46;;;;;;;;;5.00;3.75;;;;;20.88;62.89;100931.81;5092691;27;46065;-70
2023/08/15 05:52:11;;;;;;;;;5.75;3.50;;;;;20.88;62.42;100931.81;5097761;27;45247;-70
2023/08/15 05:54:37;;;;;;;;;3.00;3.00;;;;;20.87;62.39;100930.94;5083814;27;45922;-69
2023/08/15 05:57:02;;;;;;;;;5.00;3.25;;;;;20.86;62.71;100934.56;5096520;27;45399;-69
2023/08/15 05:59:28;;;;;;;;;3.25;3.25;;;;;20.86;63.02;100940.72;5097242;27;46122;-70
2023/08/15 06:01:53;;;;;;;;;3.00;3.00;;;;;20.88;62.88;100945.94;5094988;27;45215;-69
2023/08/15 06:04:19;;;;;;;;;7.00;4.00;;;;;20.90;62.33;100954.69;5097501;27;45889;-69
2023/08/15 06:06:44;;;;;;;;;6.25;2.00;;;;;20.91;62.46;100953.75;5085879;27;63877;-69
2023/08/15 06:09:09;;;;;;;;;1.75;1.75;;;;;20.91;62.64;100950.19;5089615;27;45430;-71
2023/08/15 06:11:35;;;;;;;;;6.50;3.50;;;;;20.93;62.69;100956.25;5090612;27;45463;-70
2023/08/15 06:14:00;;;;;;;;;4.25;2.00;;;;;20.94;63.00;100960.66;5100225;27;45403;-69
2023/08/15 06:16:26;;;;;;;;;3.50;3.00;;;;;20.95;63.00;100967.69;5098724;27;61809;-70
2023/08/15 06:18:52;;;;;;;;;5.25;3.75;;;;;20.98;62.63;100967.47;5099240;27;46730;-70
2023/08/15 06:21:17;;;;;;;;;2.50;2.50;;;;;20.92;63.06;100975.88;5086968;27;45374;-69
2023/08/15 06:23:42;;;;;;;;;7.00;3.00;;;;;20.88;62.97;100979.69;5086283;27;45475;-69
2023/08/15 06:26:08;;;;;;;;;6.25;4.00;;;;;20.85;62.93;100986.06;5082055;27;45441;-69
2023/08/15 06:28:33;;;;;;;;;5.50;2.50;;;;;20.83;62.96;100983.50;5078967;27;66057;-68
2023/08/15 06:30:59;;;;;;;;;3.00;2.00;;;;;20.81;63.00;100985.41;5084785;27;45465;-68
2023/08/15 06:33:24;;;;;;;;;4.00;3.00;;;;;20.81;63.55;100996.03;5088606;27;45359;-68
2023/08/15 06:35:49;;;;;;;;;3.75;3.75;;;;;20.80;63.52;100998.81;5085558;27;45424;-70
2023/08/15 06:38:15;;;;;;;;;3.00;2.00;;;;;20.81;63.33;101006.69;5083642;27;66800;-69
2023/08/15 06:40:40;;;;;;;;;4.00;2.00;;;;;20.84;63.91;101002.94;5090538;27;45291;-69
2023/08/15 06:43:05;;;;;;;;;3.50;3.50;;;;;20.83;62.94;101012.75;5091421;27;69534;-69
2023/08/15 06:45:30;;;;;;;;;4.00;3.00;;;;;20.85;63.27;101002.00;5089885;27;68879;-69
2023/08/15 06:47:56;;;;;;;;;2.25;2.00;;;;;20.92;63.57;101016.63;5084052;27;64101;-69
2023/08/15 06:50:21;;;;;;;;;4.25;3.00;;;;;20.95;64.09;101015.56;5084398;27;45445;-70
2023/08/15 06:52:47;;;;;;;;;5.00;5.00;;;;;20.99;63.85;101019.72;5085652;27;45456;-70
2023/08/15 06:55:12;;;;;;;;;4.00;4.00;;;;;21.01;63.42;101017.81;5091287;27;58643;-70
2023/08/15 06:57:37;;;;;;;;;3.50;3.00;;;;;21.09;64.03;101025.28;5080576;27;51275;-70
2023/08/15 07:00:06;;;;;;;;;5.75;2.50;;;;;21.09;63.25;101015.50;5088219;27;62323;-70
2023/08/15 07:02:32;;;;;;;;;4.50;2.50;;;;;21.14;63.84;101026.69;5097084;27;45189;-70
2023/08/15 07:04:57;;;;;;;;;5.00;2.00;;;;;21.17;63.68;101028.28;5081756;27;45504;-70
2023/08/15 07:07:22;;;;;;;;;7.50;2.00;;;;;21.19;63.71;101027.22;5083708;27;47125;-70
2023/08/15 07:09:48;;;;;;;;;5.00;4.00;;;;;21.20;63.23;101034.25;5079963;27;73236;-70
2023/08/15 07:12:17;;;;;;;;;3.50;2.50;;;;;21.21;63.42;101035.09;5082122;27;55283;-70
2023/08/15 07:14:43;;;;;;;;;6.00;3.00;;;;;21.19;63.19;101029.88;5091542;27;45321;-70
2023/08/15 07:17:09;;;;;;;;;2.00;1.00;;;;;21.20;63.38;101041.41;5079111;27;46109;-71
2023/08/15 07:19:34;;;;;;;;;4.75;3.75;;;;;21.21;63.58;101035.97;5083326;27;63017;-69
2023/08/15 07:22:00;;;;;;;;;5.00;3.00;;;;;21.24;63.66;101040.22;5088628;27;66167;-69
2023/08/15 07:24:25;;;;;;;;;4.25;3.00;;;;;21.26;63.72;101043.63;5096409;27;45590;-69
2023/08/15 07:26:51;;;;;;;;;5.50;3.75;;;;;21.29;63.91;101045.25;5093105;27;47181;-70
2023/08/15 07:29:16;;;;;;;;;3.25;3.00;;;;;21.32;63.02;101043.25;5086994;27;45437;-70
2023/08/15 07:31:41;;;;;;;;;6.75;3.75;;;;;21.34;63.88;101048.47;5080441;27;58390;-70
2023/08/15 07:34:07;;;;;;;;;3.25;3.00;;;;;21.37;63.29;101048.22;5090750;27;55558;-69
2023/08/15 07:36:32;;;;;;;;;4.50;3.00;;;;;21.41;63.36;101055.09;5094805;27;45337;-69
2023/08/15 07:38:57;;;;;;;;;8.50;3.00;;;;;21.46;63.44;101057.44;5079174;27;72339;-70
2023/08/15 07:41:23;;;;;;;;;4.75;2.75;;;;;21.51;63.75;101058.00;5086177;27;45455;-70
2023/08/15 07:43:48;;;;;;;;;4.75;2.50;;;;;21.53;62.83;101059.59;5082621;27;45508;-70
2023/08/15 07:46:14;;;;;;;;;6.50;3.00;;;;;21.56;63.09;101059.38;5085594;27;66372;-69
2023/08/15 07:48:39;;;;;;;;;4.25;3.00;;;;;21.60;62.94;101054.69;5091190;27;69503;-70
2023/08/15 07:51:05;;;;;;;;;4.50;3.75;;;;;21.60;63.08;101054.69;5088903;27;45432;-71
2023/08/15 07:53:30;;;;;;;;;5.75;4.00;;;;;21.55;63.29;101046.19;5088144;27;65456;-70
2023/08/15 07:55:55;;;;;;;;;3.25;3.00;;;;;21.60;63.24;101052.91;5088910;27;46032;-70
2023/08/15 07:58:21;;;;;;;;;4.50;2.50;;;;;21.63;62.83;101057.16;5085254;27;45341;-70
2023/08/15 08:00:46;;;;;;;;;3.00;3.00;;;;;21.64;63.64;101052.66;5089097;27;45361;-71
2023/08/15 08:03:12;;;;;;;;;5.50;4.00;;;;;21.66;63.16;101050.78;5082089;27;45589;-70
2023/08/15 08:05:37;;;;;;;;;6.50;2.50;;;;;21.73;63.43;101049.41;5096967;27;46438;-70
2023/08/15 08:08:03;;;;;;;;;4.00;3.50;;;;;21.82;63.05;101047.91;5082886;27;45318;-70
2023/08/15 08:10:28;;;;;;;;;5.50;3.00;;;;;21.86;62.50;101047.56;5091527;27;45317;-70
2023/08/15 08:12:54;;;;;;;;;3.50;3.50;;;;;21.88;62.82;101044.81;5083909;27;57765;-69
2023/08/15 08:15:23;;;;;;;;;5.75;3.00;;;;;21.92;62.63;101040.94;5090280;27;54113;-70
2023/08/15 08:17:49;;;;;;;;;4.00;2.75;;;;;21.97;62.22;101044.16;5091895;27;45305;-70
2023/08/15 08:20:16;;;;;;;;;3.00;3.00;;;;;22.04;62.50;101049.91;5076270;27;45295;-70
2023/08/15 08:22:42;;;;;;;;;4.00;2.50;;;;;22.09;62.19;101048.63;5086287;27;45384;-70
2023/08/15 08:25:29;;;;;;;;;5.25;3.25;;;;;22.10;61.97;101046.84;5078790;27;63424;-69
2023/08/15 08:27:54;;;;;;;;;4.25;2.50;;;;;22.11;61.85;101033.38;5096564;27;45504;-70
2023/08/15 08:30:21;;;;;;;;;4.75;1.50;;;;;22.16;61.50;101033.91;5092384;27;67329;-70
2023/08/15 08:32:47;;;;;;;;;3.75;3.50;;;;;22.21;61.88;101032.75;5084800;27;45278;-69
2023/08/15 08:35:16;;;;;;;;;1.50;1.50;;;;;22.28;61.23;101028.69;5091355;27;46403;-70
2023/08/15 08:37:42;;;;;;;;;6.00;4.00;;;;;22.30;61.49;101024.94;5081585;27;45443;-70
2023/08/15 08:40:09;;;;;;;;;4.00;3.00;;;;;22.32;61.46;101024.84;5096087;27;45390;-72
2023/08/15 08:42:34;;;;;;;;;6.75;4.25;;;;;22.40;61.27;101026.94;5092823;27;45464;-67
2023/08/15 08:45:01;;;;;;;;;5.50;4.50;;;;;22.49;60.82;101029.81;5089124;27;45229;-71
2023/08/15 08:47:28;;;;;;;;;3.50;2.00;;;;;22.58;60.84;101022.97;5084450;27;45475;-69
2023/08/15 08:49:57;;;;;;;;;3.50;3.25;;;;;22.73;60.80;101031.63;5075529;27;45553;-68
2023/08/15 08:52:23;;;;;;;;;4.00;3.00;;;;;22.81;60.61;101021.25;5086083;27;45303;-72
2023/08/15 08:54:48;;;;;;;;;5.00;3.00;;;;;22.90;60.24;101025.06;5084734;27;65243;-68
2023/08/15 08:57:13;;;;;;;;;3.00;2.00;;;;;23.01;60.17;101024.25;5084377;27;67697;-67
2023/08/15 08:59:42;;;;;;;;;4.75;3.00;;;;;23.11;59.63;101022.66;5092444;27;57160;-66
2023/08/15 09:02:11;;;;;;;;;4.00;3.00;;;;;23.15;59.07;101028.59;5082035;27;45323;-67
2023/08/15 09:04:37;;;;;;;;;4.00;3.00;;;;;23.20;59.38;101029.94;5082209;27;46942;-67
2023/08/15 09:07:02;;;;;;;;;3.00;2.25;;;;;23.26;58.62;101032.13;5088972;27;45469;-66
2023/08/15 09:09:28;;;;;;;;;3.00;3.00;;;;;23.33;58.81;101027.19;5096136;27;45358;-66
2023/08/15 09:11:53;;;;;;;;;3.00;2.00;;;;;23.38;58.39;101037.53;5088005;27;45390;-66
2023/08/15 09:14:18;;;;;;;;;4.25;2.50;;;;;23.39;58.35;101033.88;5094317;27;68966;-66
2023/08/15 09:16:48;;;;;;;;;4.25;1.25;;;;;23.44;58.33;101043.28;5092345;27;45416;-66
2023/08/15 09:19:17;;;;;;;;;3.00;2.25;;;;;23.48;58.21;101036.72;5087988;27;45412;-68
2023/08/15 09:21:42;;;;;;;;;73.50;52.75;;;;;23.55;58.15;101036.22;5082695;27;45559;-68
2023/08/15 09:24:08;;;;;;;;;91.25;80.75;;;;;23.62;58.13;101038.31;5100580;27;46150;-68
2023/08/15 09:26:35;;;;;;;;;39.75;34.25;;;;;23.66;58.18;101044.28;5087846;27;45316;-70
2023/08/15 09:29:04;;;;;;;;;8.75;8.25;;;;;23.71;57.93;101042.09;5082729;27;45307;-69
2023/08/15 09:31:30;;;;;;;;;6.75;3.25;;;;;23.80;58.00;101044.09;5081611;27;45490;-68
2023/08/15 09:33:56;;;;;;;;;4.75;4.00;;;;;23.91;57.30;101037.91;5086011;27;46090;-69
2023/08/15 09:36:24;;;;;;;;;4.00;3.25;;;;;24.10;57.33;101047.13;5085843;27;45347;-71
2023/08/15 09:38:57;;;;;;;;;3.00;3.00;;;;;24.25;56.63;101038.75;5080710;27;45449;-77
2023/08/15 09:41:24;;;;;;;;;2.75;1.75;;;;;24.42;56.64;101037.38;5093566;27;45539;-70
2023/08/15 09:43:51;;;;;;;;;2.00;2.00;;;;;24.45;55.83;101042.50;5097915;27;46280;-71
2023/08/15 09:46:17;;;;;;;;;3.50;2.25;;;;;24.42;55.46;101036.56;5088947;27;45226;-72
2023/08/15 09:48:45;;;;;;;;;8.50;3.25;;;;;24.40;55.03;101044.69;5081850;27;45421;-68
2023/08/15 09:51:12;;;;;;;;;4.25;2.50;;;;;24.38;54.98;101045.78;5092318;27;45622;-69
2023/08/15 09:53:39;;;;;;;;;5.00;2.00;;;;;24.32;55.00;101040.94;5090163;27;45622;-71
2023/08/15 09:56:04;;;;;;;;;5.25;2.25;;;;;24.24;54.65;101041.53;5104151;27;45518;-71
2023/08/15 09:58:29;;;;;;;;;3.75;2.00;;;;;24.15;54.86;101037.78;5086390;27;45740;-72
2023/08/15 10:00:55;;;;;;;;;5.00;3.25;;;;;24.12;54.93;101043.38;5084818;27;52378;-72
2023/08/15 10:03:31;;;;;;;;;4.25;2.25;;;;;24.16;54.87;101039.47;5095134;27;45367;-72
2023/08/15 10:05:58;;;;;;;;;4.25;4.25;;;;;24.14;54.74;101037.91;5091176;27;45383;-72
2023/08/15 10:08:24;;;;;;;;;9.00;6.00;;;;;24.07;55.10;101032.19;5083843;27;45381;-70
2023/08/15 10:10:50;;;;;;;;;6.50;6.25;;;;;24.15;54.78;101040.47;5095603;27;45417;-71
2023/08/15 10:13:18;;;;;;;;;6.50;5.50;;;;;24.16;54.87;101047.50;5093711;27;46319;-71
2023/08/15 10:15:44;;;;;;;;;17.75;14.00;;;;;24.23;54.79;101030.00;5092247;27;45390;-72
2023/08/15 10:18:09;;;;;;;;;7.25;5.25;;;;;24.26;54.44;101040.44;5084123;27;45467;-70
2023/08/15 10:20:36;;;;;;;;;6.00;4.50;;;;;24.25;54.56;101044.09;5089468;27;45586;-71
2023/08/15 10:23:02;;;;;;;;;6.00;3.25;;;;;24.35;54.38;101027.31;5095034;27;47164;-72
2023/08/15 10:25:27;;;;;;;;;5.50;3.25;;;;;24.51;54.54;101037.63;5092981;27;45239;-71
2023/08/15 10:27:55;;;;;;;;;10.67;5.00;;;;;24.64;54.61;101044.53;5085577;27;45233;-70
2023/08/15 10:30:32;;;;;;;;;3.00;3.00;;;;;24.76;54.27;101044.53;5075362;27;45916;-73
2023/08/15 10:33:14;;;;;;;;;4.25;4.25;;;;;24.90;53.89;101046.06;5099536;27;48029;-72
2023/08/15 10:35:55;;;;;;;;;8.25;4.25;;;;;25.04;52.74;101047.59;5091928;27;46622;-73
2023/08/15 10:38:43;;;;;;;;;6.50;2.25;;;;;25.22;53.47;101045.22;5081924;27;45271;-73
2023/08/15 10:41:19;;;;;;;;;3.75;2.75;;;;;25.35;53.14;101048.56;5063613;27;46104;-73
2023/08/15 10:43:50;;;;;;;;;4.25;2.00;;;;;25.46;52.74;101050.34;5091655;27;45437;-74
2023/08/15 10:46:18;;;;;;;;;2.50;1.75;;;;;25.52;52.74;101047.16;5090899;27;45265;-74
2023/08/15 10:48:49;;;;;;;;;3.00;2.00;;;;;25.57;52.82;101050.28;5084204;27;45354;-74
2023/08/15 10:51:19;;;;;;;;;3.25;3.25;;;;;25.61;52.55;101053.56;5079248;27;45366;-71
2023/08/15 10:53:56;;;;;;;;;4.25;4.25;;;;;25.63;51.91;101056.97;5086866;27;45725;-72
2023/08/15 10:56:24;;;;;;;;;5.00;3.25;;;;;25.63;52.44;101057.78;5080902;27;45337;-73
2023/08/15 10:58:50;;;;;;;;;4.00;2.00;;;;;25.66;51.17;101054.84;5087081;27;45403;-72
2023/08/15 11:01:19;;;;;;;;;4.00;1.75;;;;;25.79;51.75;101059.16;5086608;27;45428;-73
2023/08/15 11:03:46;;;;;;;;;2.00;2.00;;;;;25.93;51.53;101050.78;5089602;27;45461;-73
2023/08/15 11:06:12;;;;;;;;;2.00;2.00;;;;;25.97;51.03;101049.53;5085997;27;45796;-74
2023/08/15 11:08:57;;;;;;;;;7.00;3.50;;;;;25.97;50.90;101051.38;5089515;27;45377;-73
2023/08/15 11:11:23;;;;;;;;;4.50;4.00;;;;;25.98;50.94;101051.25;5091815;27;45319;-73
2023/08/15 11:13:51;;;;;;;;;4.00;3.00;;;;;25.95;50.71;101056.88;5073819;27;47211;-75
2023/08/15 11:16:18;;;;;;;;;5.00;2.75;;;;;25.88;50.67;101055.69;5094427;27;45394;-74
2023/08/15 11:18:45;;;;;;;;;5.25;1.50;;;;;25.84;50.32;101052.41;5091097;27;45414;-74
2023/08/15 11:21:13;;;;;;;;;2.00;1.75;;;;;25.91;50.09;101058.94;5088837;27;45651;-76